sensor_id;sensor_type;location;lat;lon;timestamp;P1;durP1;ratioP1;P2;durP2;ratioP2
80653;SDS011;70020;45.524;10.240;2023-07-08T00:01:55;5.85;;;4.03;;
80653;SDS011;70020;45.524;10.240;2023-07-08T00:06:46;7.32;;;3.85;;
80653;SDS011;70020;45.524;10.240;2023-07-08T00:09:12;8.38;;;4.32;;
80653;SDS011;70020;45.524;10.240;2023-07-08T00:11:38;11.57;;;4.05;;
80653;SDS011;70020;45.524;10.240;2023-07-08T00:14:04;10.43;;;4.45;;
80653;SDS011;70020;45.524;10.240;2023-07-08T00:16:30;7.93;;;4.38;;
80653;SDS011;70020;45.524;10.240;2023-07-08T00:18:55;8.50;;;3.95;;
80653;SDS011;70020;45.524;10.240;2023-07-08T00:21:22;7.20;;;4.00;;
80653;SDS011;70020;45.524;10.240;2023-07-08T00:23:49;5.82;;;3.97;;
80653;SDS011;70020;45.524;10.240;2023-07-08T00:26:18;7.43;;;4.38;;
80653;SDS011;70020;45.524;10.240;2023-07-08T00:28:46;6.95;;;3.88;;
80653;SDS011;70020;45.524;10.240;2023-07-08T00:33:37;7.00;;;4.00;;
80653;SDS011;70020;45.524;10.240;2023-07-08T00:38:34;7.82;;;3.70;;
80653;SDS011;70020;45.524;10.240;2023-07-08T00:41:08;5.85;;;3.90;;
80653;SDS011;70020;45.524;10.240;2023-07-08T00:43:55;7.45;;;4.57;;
80653;SDS011;70020;45.524;10.240;2023-07-08T00:51:31;5.38;;;4.00;;
80653;SDS011;70020;45.524;10.240;2023-07-08T00:53:58;10.18;;;4.15;;
80653;SDS011;70020;45.524;10.240;2023-07-08T00:57:06;5.82;;;3.50;;
80653;SDS011;70020;45.524;10.240;2023-07-08T01:01:54;6.47;;;4.03;;
80653;SDS011;70020;45.524;10.240;2023-07-08T01:04:34;6.60;;;3.75;;
80653;SDS011;70020;45.524;10.240;2023-07-08T01:07:07;7.95;;;4.35;;
80653;SDS011;70020;45.524;10.240;2023-07-08T01:09:40;7.47;;;4.00;;
80653;SDS011;70020;45.524;10.240;2023-07-08T01:12:13;5.33;;;3.53;;
80653;SDS011;70020;45.524;10.240;2023-07-08T01:14:42;5.93;;;3.95;;
80653;SDS011;70020;45.524;10.240;2023-07-08T01:19:38;8.32;;;3.90;;
80653;SDS011;70020;45.524;10.240;2023-07-08T01:22:08;5.50;;;3.92;;
80653;SDS011;70020;45.524;10.240;2023-07-08T01:24:35;5.72;;;3.63;;
80653;SDS011;70020;45.524;10.240;2023-07-08T01:27:06;7.63;;;4.07;;
80653;SDS011;70020;45.524;10.240;2023-07-08T01:29:33;7.40;;;4.20;;
80653;SDS011;70020;45.524;10.240;2023-07-08T01:34:28;6.70;;;3.92;;
80653;SDS011;70020;45.524;10.240;2023-07-08T01:36:58;9.52;;;4.38;;
80653;SDS011;70020;45.524;10.240;2023-07-08T01:39:27;9.27;;;4.35;;
80653;SDS011;70020;45.524;10.240;2023-07-08T01:41:55;7.57;;;4.07;;
80653;SDS011;70020;45.524;10.240;2023-07-08T01:44:34;6.75;;;4.25;;
80653;SDS011;70020;45.524;10.240;2023-07-08T01:47:13;8.65;;;3.90;;
80653;SDS011;70020;45.524;10.240;2023-07-08T01:49:45;7.85;;;4.22;;
80653;SDS011;70020;45.524;10.240;2023-07-08T01:52:12;7.15;;;3.90;;
80653;SDS011;70020;45.524;10.240;2023-07-08T01:54:42;8.43;;;3.95;;
80653;SDS011;70020;45.524;10.240;2023-07-08T01:57:08;7.57;;;4.05;;
80653;SDS011;70020;45.524;10.240;2023-07-08T02:02:00;6.45;;;4.20;;
80653;SDS011;70020;45.524;10.240;2023-07-08T02:04:26;8.45;;;4.35;;
80653;SDS011;70020;45.524;10.240;2023-07-08T02:06:55;8.43;;;4.15;;
80653;SDS011;70020;45.524;10.240;2023-07-08T02:09:23;6.72;;;3.88;;
80653;SDS011;70020;45.524;10.240;2023-07-08T02:11:50;6.45;;;4.30;;
80653;SDS011;70020;45.524;10.240;2023-07-08T02:14:16;6.60;;;4.03;;
80653;SDS011;70020;45.524;10.240;2023-07-08T02:19:07;6.95;;;4.15;;
80653;SDS011;70020;45.524;10.240;2023-07-08T02:24:00;5.60;;;3.75;;
80653;SDS011;70020;45.524;10.240;2023-07-08T02:26:26;5.95;;;3.97;;
80653;SDS011;70020;45.524;10.240;2023-07-08T02:31:17;10.98;;;4.00;;
80653;SDS011;70020;45.524;10.240;2023-07-08T02:36:09;9.70;;;4.22;;
80653;SDS011;70020;45.524;10.240;2023-07-08T02:41:02;7.22;;;4.05;;
80653;SDS011;70020;45.524;10.240;2023-07-08T02:43:27;8.98;;;3.90;;
80653;SDS011;70020;45.524;10.240;2023-07-08T02:45:54;6.47;;;3.75;;
80653;SDS011;70020;45.524;10.240;2023-07-08T02:48:20;10.93;;;3.90;;
80653;SDS011;70020;45.524;10.240;2023-07-08T02:53:11;7.97;;;4.30;;
80653;SDS011;70020;45.524;10.240;2023-07-08T02:55:40;9.25;;;4.18;;
80653;SDS011;70020;45.524;10.240;2023-07-08T02:58:08;7.10;;;4.03;;
80653;SDS011;70020;45.524;10.240;2023-07-08T03:00:34;5.18;;;3.80;;
80653;SDS011;70020;45.524;10.240;2023-07-08T03:03:02;6.82;;;4.28;;
80653;SDS011;70020;45.524;10.240;2023-07-08T03:05:28;8.20;;;4.28;;
80653;SDS011;70020;45.524;10.240;2023-07-08T03:07:55;8.05;;;4.32;;
80653;SDS011;70020;45.524;10.240;2023-07-08T03:12:50;6.10;;;3.88;;
80653;SDS011;70020;45.524;10.240;2023-07-08T03:17:41;8.32;;;4.47;;
80653;SDS011;70020;45.524;10.240;2023-07-08T03:20:11;7.20;;;4.40;;
80653;SDS011;70020;45.524;10.240;2023-07-08T03:22:38;5.90;;;3.88;;
80653;SDS011;70020;45.524;10.240;2023-07-08T03:27:30;8.38;;;3.92;;
80653;SDS011;70020;45.524;10.240;2023-07-08T03:29:56;7.57;;;3.80;;
80653;SDS011;70020;45.524;10.240;2023-07-08T03:32:21;10.52;;;3.60;;
80653;SDS011;70020;45.524;10.240;2023-07-08T03:37:13;7.75;;;4.40;;
80653;SDS011;70020;45.524;10.240;2023-07-08T03:42:03;6.67;;;4.83;;
80653;SDS011;70020;45.524;10.240;2023-07-08T03:46:55;8.45;;;4.68;;
80653;SDS011;70020;45.524;10.240;2023-07-08T03:49:22;9.43;;;4.20;;
80653;SDS011;70020;45.524;10.240;2023-07-08T03:51:49;9.63;;;4.00;;
80653;SDS011;70020;45.524;10.240;2023-07-08T03:54:17;8.43;;;4.25;;
80653;SDS011;70020;45.524;10.240;2023-07-08T03:56:44;8.45;;;4.30;;
80653;SDS011;70020;45.524;10.240;2023-07-08T04:01:36;10.57;;;4.32;;
80653;SDS011;70020;45.524;10.240;2023-07-08T04:04:06;7.82;;;4.35;;
80653;SDS011;70020;45.524;10.240;2023-07-08T04:06:39;7.53;;;4.30;;
80653;SDS011;70020;45.524;10.240;2023-07-08T04:11:32;7.20;;;4.03;;
80653;SDS011;70020;45.524;10.240;2023-07-08T04:16:24;9.53;;;4.17;;
80653;SDS011;70020;45.524;10.240;2023-07-08T04:19:12;6.82;;;4.00;;
80653;SDS011;70020;45.524;10.240;2023-07-08T04:21:40;8.05;;;4.50;;
80653;SDS011;70020;45.524;10.240;2023-07-08T04:24:08;8.23;;;4.55;;
80653;SDS011;70020;45.524;10.240;2023-07-08T04:26:38;8.15;;;4.38;;
80653;SDS011;70020;45.524;10.240;2023-07-08T04:29:14;7.93;;;4.35;;
80653;SDS011;70020;45.524;10.240;2023-07-08T04:31:45;10.25;;;4.28;;
80653;SDS011;70020;45.524;10.240;2023-07-08T04:36:36;9.67;;;4.40;;
80653;SDS011;70020;45.524;10.240;2023-07-08T04:39:03;8.15;;;4.40;;
80653;SDS011;70020;45.524;10.240;2023-07-08T04:41:30;10.50;;;5.13;;
80653;SDS011;70020;45.524;10.240;2023-07-08T04:49:05;10.68;;;5.32;;
80653;SDS011;70020;45.524;10.240;2023-07-08T04:51:33;9.25;;;4.80;;
80653;SDS011;70020;45.524;10.240;2023-07-08T04:53:58;8.88;;;4.90;;
80653;SDS011;70020;45.524;10.240;2023-07-08T04:58:51;11.07;;;5.03;;
80653;SDS011;70020;45.524;10.240;2023-07-08T05:03:42;10.73;;;5.00;;
80653;SDS011;70020;45.524;10.240;2023-07-08T05:08:33;11.73;;;5.38;;
80653;SDS011;70020;45.524;10.240;2023-07-08T05:13:24;11.93;;;4.93;;
80653;SDS011;70020;45.524;10.240;2023-07-08T05:18:15;14.02;;;5.28;;
80653;SDS011;70020;45.524;10.240;2023-07-08T05:23:08;11.60;;;4.90;;
80653;SDS011;70020;45.524;10.240;2023-07-08T05:28:00;10.57;;;4.60;;
80653;SDS011;70020;45.524;10.240;2023-07-08T05:32:54;11.32;;;4.97;;
80653;SDS011;70020;45.524;10.240;2023-07-08T05:35:20;11.10;;;5.53;;
80653;SDS011;70020;45.524;10.240;2023-07-08T05:40:12;13.88;;;4.65;;
80653;SDS011;70020;45.524;10.240;2023-07-08T05:42:38;15.70;;;5.63;;
80653;SDS011;70020;45.524;10.240;2023-07-08T05:45:09;14.35;;;5.20;;
80653;SDS011;70020;45.524;10.240;2023-07-08T05:47:38;23.10;;;6.13;;
80653;SDS011;70020;45.524;10.240;2023-07-08T05:52:29;12.27;;;5.20;;
80653;SDS011;70020;45.524;10.240;2023-07-08T05:57:21;12.50;;;5.55;;
80653;SDS011;70020;45.524;10.240;2023-07-08T05:59:48;11.52;;;4.53;;
80653;SDS011;70020;45.524;10.240;2023-07-08T06:02:18;13.35;;;4.95;;
80653;SDS011;70020;45.524;10.240;2023-07-08T06:04:50;9.25;;;4.80;;
80653;SDS011;70020;45.524;10.240;2023-07-08T06:09:41;10.30;;;4.47;;
80653;SDS011;70020;45.524;10.240;2023-07-08T06:14:33;9.30;;;5.68;;
80653;SDS011;70020;45.524;10.240;2023-07-08T06:16:59;15.65;;;6.50;;
80653;SDS011;70020;45.524;10.240;2023-07-08T06:19:26;15.82;;;6.90;;
80653;SDS011;70020;45.524;10.240;2023-07-08T06:24:17;18.90;;;7.35;;
80653;SDS011;70020;45.524;10.240;2023-07-08T06:29:08;15.57;;;6.85;;
80653;SDS011;70020;45.524;10.240;2023-07-08T06:31:34;18.38;;;7.28;;
80653;SDS011;70020;45.524;10.240;2023-07-08T06:34:02;20.05;;;7.47;;
80653;SDS011;70020;45.524;10.240;2023-07-08T06:36:29;17.05;;;6.60;;
80653;SDS011;70020;45.524;10.240;2023-07-08T06:41:20;14.50;;;6.63;;
80653;SDS011;70020;45.524;10.240;2023-07-08T06:43:46;13.23;;;5.78;;
80653;SDS011;70020;45.524;10.240;2023-07-08T06:48:37;14.65;;;6.88;;
80653;SDS011;70020;45.524;10.240;2023-07-08T06:51:03;13.30;;;5.88;;
80653;SDS011;70020;45.524;10.240;2023-07-08T06:53:29;11.85;;;6.05;;
80653;SDS011;70020;45.524;10.240;2023-07-08T06:55:55;12.63;;;5.70;;
80653;SDS011;70020;45.524;10.240;2023-07-08T06:58:20;10.30;;;5.75;;
80653;SDS011;70020;45.524;10.240;2023-07-08T07:00:51;11.60;;;5.57;;
80653;SDS011;70020;45.524;10.240;2023-07-08T07:03:17;15.02;;;5.35;;
80653;SDS011;70020;45.524;10.240;2023-07-08T07:08:09;12.53;;;5.97;;
80653;SDS011;70020;45.524;10.240;2023-07-08T07:10:35;10.07;;;6.00;;
80653;SDS011;70020;45.524;10.240;2023-07-08T07:13:03;12.05;;;6.45;;
80653;SDS011;70020;45.524;10.240;2023-07-08T07:15:29;13.95;;;6.93;;
80653;SDS011;70020;45.524;10.240;2023-07-08T07:17:56;15.07;;;6.68;;
80653;SDS011;70020;45.524;10.240;2023-07-08T07:20:25;16.00;;;7.38;;
80653;SDS011;70020;45.524;10.240;2023-07-08T07:22:52;12.02;;;6.65;;
80653;SDS011;70020;45.524;10.240;2023-07-08T07:25:18;13.95;;;6.55;;
80653;SDS011;70020;45.524;10.240;2023-07-08T07:27:44;16.48;;;6.43;;
80653;SDS011;70020;45.524;10.240;2023-07-08T07:30:13;12.85;;;7.10;;
80653;SDS011;70020;45.524;10.240;2023-07-08T07:32:40;14.02;;;6.65;;
80653;SDS011;70020;45.524;10.240;2023-07-08T07:35:07;11.57;;;5.97;;
80653;SDS011;70020;45.524;10.240;2023-07-08T07:37:33;11.88;;;5.57;;
80653;SDS011;70020;45.524;10.240;2023-07-08T07:40:02;12.30;;;6.03;;
80653;SDS011;70020;45.524;10.240;2023-07-08T07:42:28;11.73;;;5.97;;
80653;SDS011;70020;45.524;10.240;2023-07-08T07:44:53;9.77;;;5.70;;
80653;SDS011;70020;45.524;10.240;2023-07-08T07:47:19;10.10;;;5.22;;
80653;SDS011;70020;45.524;10.240;2023-07-08T07:49:44;9.30;;;5.40;;
80653;SDS011;70020;45.524;10.240;2023-07-08T07:52:11;10.85;;;5.80;;
80653;SDS011;70020;45.524;10.240;2023-07-08T07:54:37;9.50;;;4.80;;
80653;SDS011;70020;45.524;10.240;2023-07-08T07:57:03;8.18;;;3.80;;
80653;SDS011;70020;45.524;10.240;2023-07-08T07:59:29;7.82;;;4.22;;
80653;SDS011;70020;45.524;10.240;2023-07-08T08:01:55;8.10;;;3.83;;
80653;SDS011;70020;45.524;10.240;2023-07-08T08:04:20;6.80;;;3.67;;
80653;SDS011;70020;45.524;10.240;2023-07-08T08:06:46;5.72;;;3.67;;
80653;SDS011;70020;45.524;10.240;2023-07-08T08:09:12;8.05;;;4.03;;
80653;SDS011;70020;45.524;10.240;2023-07-08T08:11:38;5.65;;;3.97;;
80653;SDS011;70020;45.524;10.240;2023-07-08T08:14:04;6.68;;;4.05;;
80653;SDS011;70020;45.524;10.240;2023-07-08T08:16:29;6.20;;;3.67;;
80653;SDS011;70020;45.524;10.240;2023-07-08T08:18:55;5.72;;;4.20;;
80653;SDS011;70020;45.524;10.240;2023-07-08T08:21:21;4.90;;;3.53;;
80653;SDS011;70020;45.524;10.240;2023-07-08T08:23:46;6.65;;;4.05;;
80653;SDS011;70020;45.524;10.240;2023-07-08T08:26:13;7.05;;;3.58;;
80653;SDS011;70020;45.524;10.240;2023-07-08T08:28:39;8.05;;;4.00;;
80653;SDS011;70020;45.524;10.240;2023-07-08T08:31:05;5.35;;;3.85;;
80653;SDS011;70020;45.524;10.240;2023-07-08T08:33:31;6.28;;;3.83;;
80653;SDS011;70020;45.524;10.240;2023-07-08T08:35:56;8.32;;;4.20;;
80653;SDS011;70020;45.524;10.240;2023-07-08T08:38:23;5.53;;;3.60;;
80653;SDS011;70020;45.524;10.240;2023-07-08T08:40:49;6.47;;;3.75;;
80653;SDS011;70020;45.524;10.240;2023-07-08T08:43:15;8.02;;;4.28;;
80653;SDS011;70020;45.524;10.240;2023-07-08T08:48:18;11.73;;;4.38;;
80653;SDS011;70020;45.524;10.240;2023-07-08T08:50:49;6.65;;;4.20;;
80653;SDS011;70020;45.524;10.240;2023-07-08T08:53:17;7.80;;;4.53;;
80653;SDS011;70020;45.524;10.240;2023-07-08T08:55:56;7.75;;;4.45;;
80653;SDS011;70020;45.524;10.240;2023-07-08T09:01:14;7.38;;;4.22;;
80653;SDS011;70020;45.524;10.240;2023-07-08T09:03:47;5.82;;;4.07;;
80653;SDS011;70020;45.524;10.240;2023-07-08T09:06:23;6.72;;;4.00;;
80653;SDS011;70020;45.524;10.240;2023-07-08T09:08:50;6.93;;;4.18;;
80653;SDS011;70020;45.524;10.240;2023-07-08T09:11:38;7.30;;;4.50;;
80653;SDS011;70020;45.524;10.240;2023-07-08T09:14:41;9.27;;;4.00;;
80653;SDS011;70020;45.524;10.240;2023-07-08T09:22:56;7.10;;;4.20;;
80653;SDS011;70020;45.524;10.240;2023-07-08T09:27:53;6.53;;;4.35;;
80653;SDS011;70020;45.524;10.240;2023-07-08T09:30:20;6.25;;;4.25;;
80653;SDS011;70020;45.524;10.240;2023-07-08T09:32:47;6.20;;;4.28;;
80653;SDS011;70020;45.524;10.240;2023-07-08T09:35:18;6.30;;;4.38;;
80653;SDS011;70020;45.524;10.240;2023-07-08T09:37:47;5.53;;;3.85;;
80653;SDS011;70020;45.524;10.240;2023-07-08T09:40:20;6.20;;;4.00;;
80653;SDS011;70020;45.524;10.240;2023-07-08T09:42:53;8.35;;;4.22;;
80653;SDS011;70020;45.524;10.240;2023-07-08T09:45:24;7.53;;;4.30;;
80653;SDS011;70020;45.524;10.240;2023-07-08T09:47:54;10.38;;;4.50;;
80653;SDS011;70020;45.524;10.240;2023-07-08T09:50:25;7.40;;;4.30;;
80653;SDS011;70020;45.524;10.240;2023-07-08T09:52:53;7.03;;;4.68;;
80653;SDS011;70020;45.524;10.240;2023-07-08T09:55:20;11.02;;;4.97;;
80653;SDS011;70020;45.524;10.240;2023-07-08T09:57:47;6.40;;;4.43;;
80653;SDS011;70020;45.524;10.240;2023-07-08T10:00:15;8.73;;;4.65;;
80653;SDS011;70020;45.524;10.240;2023-07-08T10:07:37;7.60;;;4.53;;
80653;SDS011;70020;45.524;10.240;2023-07-08T10:10:08;5.43;;;3.97;;
80653;SDS011;70020;45.524;10.240;2023-07-08T10:12:39;7.57;;;4.32;;
80653;SDS011;70020;45.524;10.240;2023-07-08T10:15:13;7.15;;;4.40;;
80653;SDS011;70020;45.524;10.240;2023-07-08T10:17:46;7.20;;;4.35;;
80653;SDS011;70020;45.524;10.240;2023-07-08T10:20:12;7.22;;;4.65;;
80653;SDS011;70020;45.524;10.240;2023-07-08T10:22:45;7.88;;;4.93;;
80653;SDS011;70020;45.524;10.240;2023-07-08T10:25:25;7.25;;;4.95;;
80653;SDS011;70020;45.524;10.240;2023-07-08T10:30:45;9.68;;;4.85;;
80653;SDS011;70020;45.524;10.240;2023-07-08T10:36:40;6.78;;;4.85;;
80653;SDS011;70020;45.524;10.240;2023-07-08T10:42:21;8.63;;;4.70;;
80653;SDS011;70020;45.524;10.240;2023-07-08T10:44:59;7.03;;;4.50;;
80653;SDS011;70020;45.524;10.240;2023-07-08T10:47:40;7.93;;;5.22;;
80653;SDS011;70020;45.524;10.240;2023-07-08T10:53:28;10.15;;;5.28;;
80653;SDS011;70020;45.524;10.240;2023-07-08T10:56:15;8.85;;;5.22;;
80653;SDS011;70020;45.524;10.240;2023-07-08T10:58:52;7.78;;;5.25;;
80653;SDS011;70020;45.524;10.240;2023-07-08T11:01:31;7.25;;;4.82;;
80653;SDS011;70020;45.524;10.240;2023-07-08T11:07:13;7.65;;;4.80;;
80653;SDS011;70020;45.524;10.240;2023-07-08T11:12:40;7.97;;;4.78;;
80653;SDS011;70020;45.524;10.240;2023-07-08T11:17:38;8.52;;;4.68;;
80653;SDS011;70020;45.524;10.240;2023-07-08T11:20:21;6.93;;;4.57;;
80653;SDS011;70020;45.524;10.240;2023-07-08T11:22:57;7.40;;;4.72;;
80653;SDS011;70020;45.524;10.240;2023-07-08T11:25:30;7.18;;;4.88;;
80653;SDS011;70020;45.524;10.240;2023-07-08T11:27:57;7.68;;;4.70;;
80653;SDS011;70020;45.524;10.240;2023-07-08T11:30:28;8.02;;;4.95;;
80653;SDS011;70020;45.524;10.240;2023-07-08T11:33:00;7.05;;;4.82;;
80653;SDS011;70020;45.524;10.240;2023-07-08T11:35:33;9.75;;;4.90;;
80653;SDS011;70020;45.524;10.240;2023-07-08T11:38:03;8.05;;;4.80;;
80653;SDS011;70020;45.524;10.240;2023-07-08T11:40:29;7.05;;;4.50;;
80653;SDS011;70020;45.524;10.240;2023-07-08T11:43:02;8.88;;;4.70;;
80653;SDS011;70020;45.524;10.240;2023-07-08T11:45:35;5.70;;;4.43;;
80653;SDS011;70020;45.524;10.240;2023-07-08T11:48:03;7.72;;;4.80;;
80653;SDS011;70020;45.524;10.240;2023-07-08T11:50:35;8.57;;;5.22;;
80653;SDS011;70020;45.524;10.240;2023-07-08T11:53:06;11.65;;;4.90;;
80653;SDS011;70020;45.524;10.240;2023-07-08T12:00:58;6.63;;;4.90;;
80653;SDS011;70020;45.524;10.240;2023-07-08T12:03:35;7.35;;;4.93;;
80653;SDS011;70020;45.524;10.240;2023-07-08T12:06:02;6.65;;;4.93;;
80653;SDS011;70020;45.524;10.240;2023-07-08T12:08:48;5.78;;;4.22;;
80653;SDS011;70020;45.524;10.240;2023-07-08T12:11:14;8.10;;;4.65;;
80653;SDS011;70020;45.524;10.240;2023-07-08T12:13:39;8.13;;;5.05;;
80653;SDS011;70020;45.524;10.240;2023-07-08T12:16:09;7.15;;;4.68;;
80653;SDS011;70020;45.524;10.240;2023-07-08T12:18:36;7.05;;;4.65;;
80653;SDS011;70020;45.524;10.240;2023-07-08T12:21:15;7.85;;;4.65;;
80653;SDS011;70020;45.524;10.240;2023-07-08T12:23:45;6.20;;;4.55;;
80653;SDS011;70020;45.524;10.240;2023-07-08T12:26:12;8.20;;;4.70;;
80653;SDS011;70020;45.524;10.240;2023-07-08T12:28:39;9.02;;;4.50;;
80653;SDS011;70020;45.524;10.240;2023-07-08T12:31:38;6.97;;;4.75;;
80653;SDS011;70020;45.524;10.240;2023-07-08T12:33:59;8.07;;;4.90;;
80653;SDS011;70020;45.524;10.240;2023-07-08T12:36:27;6.68;;;4.55;;
80653;SDS011;70020;45.524;10.240;2023-07-08T12:38:54;10.48;;;5.30;;
80653;SDS011;70020;45.524;10.240;2023-07-08T12:41:22;8.70;;;4.60;;
80653;SDS011;70020;45.524;10.240;2023-07-08T12:43:50;8.77;;;5.18;;
80653;SDS011;70020;45.524;10.240;2023-07-08T12:46:17;8.43;;;4.22;;
80653;SDS011;70020;45.524;10.240;2023-07-08T12:48:45;6.75;;;4.10;;
80653;SDS011;70020;45.524;10.240;2023-07-08T12:51:12;8.77;;;4.80;;
80653;SDS011;70020;45.524;10.240;2023-07-08T12:53:58;7.35;;;4.80;;
80653;SDS011;70020;45.524;10.240;2023-07-08T12:56:24;6.13;;;4.05;;
80653;SDS011;70020;45.524;10.240;2023-07-08T12:58:50;13.95;;;4.80;;
80653;SDS011;70020;45.524;10.240;2023-07-08T13:01:22;10.93;;;4.60;;
80653;SDS011;70020;45.524;10.240;2023-07-08T13:03:51;8.23;;;4.68;;
80653;SDS011;70020;45.524;10.240;2023-07-08T13:06:24;8.07;;;4.90;;
80653;SDS011;70020;45.524;10.240;2023-07-08T13:08:53;7.65;;;4.78;;
80653;SDS011;70020;45.524;10.240;2023-07-08T13:11:21;7.88;;;4.50;;
80653;SDS011;70020;45.524;10.240;2023-07-08T13:13:52;7.07;;;4.90;;
80653;SDS011;70020;45.524;10.240;2023-07-08T13:16:26;7.45;;;4.78;;
80653;SDS011;70020;45.524;10.240;2023-07-08T13:18:57;7.95;;;4.85;;
80653;SDS011;70020;45.524;10.240;2023-07-08T13:21:23;6.90;;;4.45;;
80653;SDS011;70020;45.524;10.240;2023-07-08T13:23:49;6.07;;;4.13;;
80653;SDS011;70020;45.524;10.240;2023-07-08T13:26:16;6.60;;;4.75;;
80653;SDS011;70020;45.524;10.240;2023-07-08T13:28:44;6.15;;;4.63;;
80653;SDS011;70020;45.524;10.240;2023-07-08T13:31:15;6.97;;;4.57;;
80653;SDS011;70020;45.524;10.240;2023-07-08T13:33:47;9.27;;;4.53;;
80653;SDS011;70020;45.524;10.240;2023-07-08T13:36:18;10.80;;;4.63;;
80653;SDS011;70020;45.524;10.240;2023-07-08T13:38:47;7.15;;;4.35;;
80653;SDS011;70020;45.524;10.240;2023-07-08T13:41:17;10.40;;;4.22;;
80653;SDS011;70020;45.524;10.240;2023-07-08T13:43:48;6.73;;;4.50;;
80653;SDS011;70020;45.524;10.240;2023-07-08T13:46:35;6.20;;;3.80;;
80653;SDS011;70020;45.524;10.240;2023-07-08T13:49:13;7.65;;;4.72;;
80653;SDS011;70020;45.524;10.240;2023-07-08T13:52:03;10.05;;;5.00;;
80653;SDS011;70020;45.524;10.240;2023-07-08T13:54:37;7.60;;;4.60;;
80653;SDS011;70020;45.524;10.240;2023-07-08T13:57:10;9.88;;;4.22;;
80653;SDS011;70020;45.524;10.240;2023-07-08T13:59:37;7.40;;;3.50;;
80653;SDS011;70020;45.524;10.240;2023-07-08T14:02:05;6.50;;;4.10;;
80653;SDS011;70020;45.524;10.240;2023-07-08T14:04:43;6.60;;;4.07;;
80653;SDS011;70020;45.524;10.240;2023-07-08T14:07:13;8.35;;;4.68;;
80653;SDS011;70020;45.524;10.240;2023-07-08T14:09:42;8.30;;;4.55;;
80653;SDS011;70020;45.524;10.240;2023-07-08T14:12:08;6.82;;;3.95;;
80653;SDS011;70020;45.524;10.240;2023-07-08T14:14:34;8.18;;;4.25;;
80653;SDS011;70020;45.524;10.240;2023-07-08T14:16:59;8.18;;;4.43;;
80653;SDS011;70020;45.524;10.240;2023-07-08T14:19:26;9.30;;;4.35;;
80653;SDS011;70020;45.524;10.240;2023-07-08T14:21:55;6.93;;;3.83;;
80653;SDS011;70020;45.524;10.240;2023-07-08T14:24:22;8.43;;;4.38;;
80653;SDS011;70020;45.524;10.240;2023-07-08T14:26:52;9.00;;;4.35;;
80653;SDS011;70020;45.524;10.240;2023-07-08T14:29:18;7.57;;;4.00;;
80653;SDS011;70020;45.524;10.240;2023-07-08T14:31:45;8.38;;;4.10;;
80653;SDS011;70020;45.524;10.240;2023-07-08T14:34:23;8.25;;;4.10;;
80653;SDS011;70020;45.524;10.240;2023-07-08T14:36:51;5.85;;;3.90;;
80653;SDS011;70020;45.524;10.240;2023-07-08T14:39:17;6.20;;;4.13;;
80653;SDS011;70020;45.524;10.240;2023-07-08T14:41:45;6.38;;;4.28;;
80653;SDS011;70020;45.524;10.240;2023-07-08T14:44:18;9.95;;;4.47;;
80653;SDS011;70020;45.524;10.240;2023-07-08T14:46:47;5.68;;;4.38;;
80653;SDS011;70020;45.524;10.240;2023-07-08T14:49:16;6.43;;;4.45;;
80653;SDS011;70020;45.524;10.240;2023-07-08T14:51:47;6.40;;;4.30;;
80653;SDS011;70020;45.524;10.240;2023-07-08T14:54:20;9.55;;;4.00;;
80653;SDS011;70020;45.524;10.240;2023-07-08T14:56:47;7.95;;;4.00;;
80653;SDS011;70020;45.524;10.240;2023-07-08T14:59:15;6.80;;;4.60;;
80653;SDS011;70020;45.524;10.240;2023-07-08T15:01:46;7.18;;;3.95;;
80653;SDS011;70020;45.524;10.240;2023-07-08T15:04:13;5.68;;;3.92;;
80653;SDS011;70020;45.524;10.240;2023-07-08T15:06:45;7.47;;;4.35;;
80653;SDS011;70020;45.524;10.240;2023-07-08T15:09:12;8.00;;;4.40;;
80653;SDS011;70020;45.524;10.240;2023-07-08T15:11:42;12.85;;;4.70;;
80653;SDS011;70020;45.524;10.240;2023-07-08T15:14:09;6.97;;;4.70;;
80653;SDS011;70020;45.524;10.240;2023-07-08T15:16:48;7.70;;;4.70;;
80653;SDS011;70020;45.524;10.240;2023-07-08T15:19:15;6.13;;;3.90;;
80653;SDS011;70020;45.524;10.240;2023-07-08T15:21:41;8.38;;;4.72;;
80653;SDS011;70020;45.524;10.240;2023-07-08T15:24:08;8.13;;;4.32;;
80653;SDS011;70020;45.524;10.240;2023-07-08T15:26:39;9.23;;;5.07;;
80653;SDS011;70020;45.524;10.240;2023-07-08T15:29:07;11.07;;;4.20;;
80653;SDS011;70020;45.524;10.240;2023-07-08T15:31:39;9.65;;;4.82;;
80653;SDS011;70020;45.524;10.240;2023-07-08T15:34:15;12.20;;;5.63;;
80653;SDS011;70020;45.524;10.240;2023-07-08T15:36:46;6.25;;;4.15;;
80653;SDS011;70020;45.524;10.240;2023-07-08T15:39:12;8.27;;;4.13;;
80653;SDS011;70020;45.524;10.240;2023-07-08T15:41:38;7.53;;;4.70;;
80653;SDS011;70020;45.524;10.240;2023-07-08T15:44:07;8.68;;;5.30;;
80653;SDS011;70020;45.524;10.240;2023-07-08T15:46:42;7.50;;;4.72;;
80653;SDS011;70020;45.524;10.240;2023-07-08T15:51:43;7.75;;;4.20;;
80653;SDS011;70020;45.524;10.240;2023-07-08T15:54:09;7.53;;;4.78;;
80653;SDS011;70020;45.524;10.240;2023-07-08T15:56:35;7.88;;;4.70;;
80653;SDS011;70020;45.524;10.240;2023-07-08T15:59:01;8.68;;;4.78;;
80653;SDS011;70020;45.524;10.240;2023-07-08T16:01:28;8.25;;;4.88;;
80653;SDS011;70020;45.524;10.240;2023-07-08T16:03:54;9.55;;;5.10;;
80653;SDS011;70020;45.524;10.240;2023-07-08T16:06:20;8.27;;;4.95;;
80653;SDS011;70020;45.524;10.240;2023-07-08T16:08:46;8.60;;;5.15;;
80653;SDS011;70020;45.524;10.240;2023-07-08T16:11:14;9.13;;;4.90;;
80653;SDS011;70020;45.524;10.240;2023-07-08T16:13:43;8.52;;;5.00;;
80653;SDS011;70020;45.524;10.240;2023-07-08T16:16:10;7.15;;;4.55;;
80653;SDS011;70020;45.524;10.240;2023-07-08T16:18:37;6.28;;;4.68;;
80653;SDS011;70020;45.524;10.240;2023-07-08T16:21:03;8.45;;;4.70;;
80653;SDS011;70020;45.524;10.240;2023-07-08T16:23:29;7.68;;;4.30;;
80653;SDS011;70020;45.524;10.240;2023-07-08T16:25:56;7.22;;;4.50;;
80653;SDS011;70020;45.524;10.240;2023-07-08T16:28:38;7.45;;;4.60;;
80653;SDS011;70020;45.524;10.240;2023-07-08T16:31:17;7.03;;;4.18;;
80653;SDS011;70020;45.524;10.240;2023-07-08T16:33:46;5.93;;;4.18;;
80653;SDS011;70020;45.524;10.240;2023-07-08T16:36:18;8.18;;;4.75;;
80653;SDS011;70020;45.524;10.240;2023-07-08T16:38:46;8.98;;;5.05;;
80653;SDS011;70020;45.524;10.240;2023-07-08T16:41:20;6.68;;;4.65;;
80653;SDS011;70020;45.524;10.240;2023-07-08T16:43:48;7.35;;;4.60;;
80653;SDS011;70020;45.524;10.240;2023-07-08T16:46:21;10.93;;;4.55;;
80653;SDS011;70020;45.524;10.240;2023-07-08T16:48:47;6.28;;;4.40;;
80653;SDS011;70020;45.524;10.240;2023-07-08T16:51:14;9.10;;;4.55;;
80653;SDS011;70020;45.524;10.240;2023-07-08T16:53:42;6.30;;;4.47;;
80653;SDS011;70020;45.524;10.240;2023-07-08T16:56:12;10.82;;;4.75;;
80653;SDS011;70020;45.524;10.240;2023-07-08T16:58:42;8.90;;;4.85;;
80653;SDS011;70020;45.524;10.240;2023-07-08T17:01:19;9.82;;;5.13;;
80653;SDS011;70020;45.524;10.240;2023-07-08T17:03:47;6.32;;;4.82;;
80653;SDS011;70020;45.524;10.240;2023-07-08T17:06:14;8.85;;;4.57;;
80653;SDS011;70020;45.524;10.240;2023-07-08T17:08:40;9.43;;;5.05;;
80653;SDS011;70020;45.524;10.240;2023-07-08T17:11:06;7.63;;;4.28;;
80653;SDS011;70020;45.524;10.240;2023-07-08T17:13:31;8.77;;;4.72;;
80653;SDS011;70020;45.524;10.240;2023-07-08T17:15:57;10.05;;;4.65;;
80653;SDS011;70020;45.524;10.240;2023-07-08T17:18:23;7.65;;;5.10;;
80653;SDS011;70020;45.524;10.240;2023-07-08T17:20:50;6.68;;;4.68;;